Time;durP1;ratioP1;P1;durP2;ratioP2;P2;SDS_P1;SDS_P2;PMS_P1;PMS_P2;Temp;Humidity;BMP_temperature;BMP_pressure;BME280_temperature;BME280_humidity;BME280_pressure;Samples;Min_cycle;Max_cycle;Signal;HPM_P1;HPM_P2
2023/11/09 00:01:47;;;;;;;29.88;27.27;;;;;;;;;;5070301;28;20025;-52
2023/11/09 00:04:13;;;;;;;31.00;28.10;;;;;;;;;;5070709;28;20040;-49
2023/11/09 00:06:39;;;;;;;31.65;28.85;;;;;;;;;;5062485;28;20031;-50
2023/11/09 00:09:06;;;;;;;32.67;29.88;;;;;;;;;;5070132;28;20017;-49
2023/11/09 00:11:34;;;;;;;30.83;27.92;;;;;;;;;;5069655;28;20096;-46
2023/11/09 00:14:04;;;;;;;33.35;30.20;;;;;;;;;;5070361;28;20390;-45
2023/11/09 00:16:30;;;;;;;32.42;29.30;;;;;;;;;;5069973;28;20111;-49
2023/11/09 00:18:57;;;;;;;31.45;28.67;;;;;;;;;;5070147;28;20044;-46
2023/11/09 00:21:23;;;;;;;30.52;27.92;;;;;;;;;;5051450;28;20028;-51
2023/11/09 00:23:49;;;;;;;30.90;28.23;;;;;;;;;;5070110;28;20394;-48
2023/11/09 00:26:15;;;;;;;29.33;26.83;;;;;;;;;;5070098;28;20032;-46
2023/11/09 00:28:41;;;;;;;28.27;25.83;;;;;;;;;;5070205;28;20021;-47
2023/11/09 00:31:07;;;;;;;28.88;26.35;;;;;;;;;;5069499;28;20532;-46
2023/11/09 00:33:33;;;;;;;28.15;25.75;;;;;;;;;;5069921;28;20033;-47
2023/11/09 00:35:59;;;;;;;28.52;25.85;;;;;;;;;;5052228;28;20031;-49
2023/11/09 00:38:26;;;;;;;26.27;23.92;;;;;;;;;;5070160;28;20100;-51
2023/11/09 00:40:52;;;;;;;26.27;23.95;;;;;;;;;;5051665;28;20024;-50
2023/11/09 00:43:18;;;;;;;25.30;22.90;;;;;;;;;;5069903;28;20033;-51
2023/11/09 00:45:44;;;;;;;24.77;22.58;;;;;;;;;;5070086;28;20024;-47
2023/11/09 00:48:10;;;;;;;23.52;21.33;;;;;;;;;;5070059;28;20031;-52
2023/11/09 00:50:36;;;;;;;22.13;19.95;;;;;;;;;;5069275;28;20032;-52
2023/11/09 00:53:02;;;;;;;22.40;20.30;;;;;;;;;;5070018;28;20017;-48
2023/11/09 00:55:28;;;;;;;23.38;21.17;;;;;;;;;;5070056;28;20111;-49
2023/11/09 00:57:54;;;;;;;22.80;20.55;;;;;;;;;;5070050;28;20020;-49
2023/11/09 01:00:20;;;;;;;21.85;19.73;;;;;;;;;;5071332;28;20065;-51
2023/11/09 01:02:48;;;;;;;22.40;20.00;;;;;;;;;;5073916;28;20027;-50
2023/11/09 01:05:14;;;;;;;22.67;20.48;;;;;;;;;;5073833;28;20020;-50
2023/11/09 01:07:40;;;;;;;22.40;20.20;;;;;;;;;;5073945;28;20032;-51
2023/11/09 01:10:06;;;;;;;21.67;19.58;;;;;;;;;;5055173;28;20024;-49
2023/11/09 01:12:32;;;;;;;21.92;19.83;;;;;;;;;;5055514;28;20020;-53
2023/11/09 01:14:59;;;;;;;22.10;19.80;;;;;;;;;;5073860;28;20379;-50
2023/11/09 01:17:27;;;;;;;23.70;21.17;;;;;;;;;;5055674;28;20020;-47
2023/11/09 01:19:53;;;;;;;22.75;20.38;;;;;;;;;;5072768;28;20020;-53
2023/11/09 01:22:19;;;;;;;22.38;20.05;;;;;;;;;;5073328;28;20104;-50
2023/11/09 01:24:45;;;;;;;21.77;19.58;;;;;;;;;;5073671;28;20044;-48
2023/11/09 01:27:11;;;;;;;23.83;21.42;;;;;;;;;;5073710;28;20020;-48
2023/11/09 01:29:38;;;;;;;23.30;20.95;;;;;;;;;;5073100;28;20398;-48
2023/11/09 01:32:04;;;;;;;23.83;21.63;;;;;;;;;;5073870;28;20029;-48
2023/11/09 01:34:30;;;;;;;24.02;21.83;;;;;;;;;;5073985;28;20522;-47
2023/11/09 01:36:57;;;;;;;23.88;21.67;;;;;;;;;;5073753;28;20116;-50
2023/11/09 01:39:23;;;;;;;24.75;22.40;;;;;;;;;;5073333;28;20052;-51
2023/11/09 01:41:49;;;;;;;24.83;22.63;;;;;;;;;;5054675;28;20025;-51
2023/11/09 01:44:15;;;;;;;25.73;23.40;;;;;;;;;;5073336;28;20021;-48
2023/11/09 01:46:44;;;;;;;24.10;21.75;;;;;;;;;;5073063;28;20391;-51
2023/11/09 01:49:10;;;;;;;23.52;21.33;;;;;;;;;;5072721;28;20020;-48
2023/11/09 01:51:37;;;;;;;23.92;21.73;;;;;;;;;;5054292;28;20031;-50
2023/11/09 01:54:03;;;;;;;24.80;22.27;;;;;;;;;;5073042;28;20020;-48
2023/11/09 01:56:30;;;;;;;23.83;21.63;;;;;;;;;;5072891;28;20025;-48
2023/11/09 01:58:56;;;;;;;23.33;21.08;;;;;;;;;;5072777;28;20467;-53
2023/11/09 02:01:25;;;;;;;24.67;22.27;;;;;;;;;;5072140;28;20025;-53
2023/11/09 02:03:52;;;;;;;22.77;20.60;;;;;;;;;;5072850;28;20020;-47
2023/11/09 02:06:18;;;;;;;23.20;20.90;;;;;;;;;;5073072;28;20032;-47
2023/11/09 02:08:47;;;;;;;22.98;20.77;;;;;;;;;;5072848;28;20043;-48
2023/11/09 02:11:13;;;;;;;22.65;20.55;;;;;;;;;;5071855;28;20127;-50
2023/11/09 02:13:39;;;;;;;23.25;20.88;;;;;;;;;;5072663;28;20060;-49
2023/11/09 02:16:06;;;;;;;22.65;20.55;;;;;;;;;;5072854;28;20501;-50
2023/11/09 02:18:33;;;;;;;22.58;20.48;;;;;;;;;;5072837;28;20471;-47
2023/11/09 02:20:59;;;;;;;22.55;20.40;;;;;;;;;;5072108;28;20016;-45
2023/11/09 02:23:27;;;;;;;22.70;20.50;;;;;;;;;;5072674;28;20099;-46
2023/11/09 02:25:53;;;;;;;22.98;20.75;;;;;;;;;;5072663;28;20020;-53
2023/11/09 02:28:20;;;;;;;23.05;20.95;;;;;;;;;;5054710;28;20029;-51
2023/11/09 02:30:46;;;;;;;22.75;20.55;;;;;;;;;;5072059;28;20457;-48
2023/11/09 02:33:13;;;;;;;22.85;20.65;;;;;;;;;;5072627;28;20020;-53
2023/11/09 02:35:40;;;;;;;23.13;20.88;;;;;;;;;;5055373;28;20379;-49
2023/11/09 02:38:08;;;;;;;22.55;20.45;;;;;;;;;;5073107;28;20471;-48
2023/11/09 02:40:34;;;;;;;22.55;20.15;;;;;;;;;;5072012;28;20032;-49
2023/11/09 02:43:00;;;;;;;22.92;20.67;;;;;;;;;;5072777;28;20029;-48
2023/11/09 02:45:26;;;;;;;22.42;20.33;;;;;;;;;;5073141;28;20085;-47
2023/11/09 02:47:52;;;;;;;23.40;21.20;;;;;;;;;;5072930;28;20024;-48
2023/11/09 02:50:20;;;;;;;23.05;20.95;;;;;;;;;;5072038;28;20505;-47
2023/11/09 02:52:48;;;;;;;23.27;21.17;;;;;;;;;;5073301;28;20024;-46
2023/11/09 02:55:14;;;;;;;23.17;20.90;;;;;;;;;;5072283;28;20045;-50
2023/11/09 02:57:40;;;;;;;24.45;22.08;;;;;;;;;;5072511;28;20108;-50
2023/11/09 03:00:06;;;;;;;24.40;21.90;;;;;;;;;;5071457;28;20099;-48
2023/11/09 03:02:32;;;;;;;24.27;22.08;;;;;;;;;;5071614;28;20493;-50
2023/11/09 03:04:59;;;;;;;24.20;22.00;;;;;;;;;;5071845;28;20379;-50
2023/11/09 03:07:25;;;;;;;24.88;22.38;;;;;;;;;;5071587;28;20094;-52
2023/11/09 03:09:51;;;;;;;24.52;22.33;;;;;;;;;;5053021;28;20021;-52
2023/11/09 03:12:17;;;;;;;24.30;22.10;;;;;;;;;;5071453;28;20095;-52
2023/11/09 03:14:43;;;;;;;24.50;22.20;;;;;;;;;;5071266;28;20120;-48
2023/11/09 03:17:11;;;;;;;24.92;22.63;;;;;;;;;;5071493;28;20066;-46
2023/11/09 03:19:37;;;;;;;24.87;22.57;;;;;;;;;;5070757;28;20025;-53
2023/11/09 03:22:07;;;;;;;24.88;22.55;;;;;;;;;;5070548;28;20402;-47
2023/11/09 03:24:34;;;;;;;24.50;22.10;;;;;;;;;;5071368;28;20025;-48
2023/11/09 03:27:01;;;;;;;24.35;21.92;;;;;;;;;;5071310;28;20440;-52
2023/11/09 03:29:27;;;;;;;25.17;22.88;;;;;;;;;;5052903;28;20025;-53
2023/11/09 03:31:53;;;;;;;24.55;22.20;;;;;;;;;;5071238;28;20576;-54
2023/11/09 03:34:19;;;;;;;24.75;22.45;;;;;;;;;;5070951;28;20021;-49
2023/11/09 03:36:45;;;;;;;24.67;22.38;;;;;;;;;;5071151;28;20020;-50
2023/11/09 03:39:11;;;;;;;25.10;22.70;;;;;;;;;;5070822;28;20479;-50
2023/11/09 03:41:37;;;;;;;24.83;22.52;;;;;;;;;;5052238;28;20027;-50
2023/11/09 03:44:03;;;;;;;25.95;23.45;;;;;;;;;;5052860;28;20115;-54
2023/11/09 03:46:29;;;;;;;25.60;23.08;;;;;;;;;;5070690;28;20390;-49
2023/11/09 03:48:55;;;;;;;25.90;23.50;;;;;;;;;;5070711;28;20024;-51
2023/11/09 03:51:24;;;;;;;25.60;23.30;;;;;;;;;;5069631;28;20013;-54
2023/11/09 03:53:50;;;;;;;24.77;22.48;;;;;;;;;;5070789;28;20031;-53
2023/11/09 03:56:16;;;;;;;25.13;22.67;;;;;;;;;;5070460;28;20031;-52
2023/11/09 03:58:45;;;;;;;25.00;22.60;;;;;;;;;;5070437;28;20024;-46
2023/11/09 04:01:11;;;;;;;25.48;22.88;;;;;;;;;;5052019;28;20017;-48
2023/11/09 04:03:37;;;;;;;25.58;23.27;;;;;;;;;;5070328;28;20031;-51
2023/11/09 04:06:03;;;;;;;26.20;23.83;;;;;;;;;;5070391;28;20027;-51
2023/11/09 04:08:29;;;;;;;25.02;22.73;;;;;;;;;;5052348;28;20540;-53
2023/11/09 04:10:55;;;;;;;24.23;21.92;;;;;;;;;;5069687;28;20142;-49
2023/11/09 04:13:21;;;;;;;25.20;22.80;;;;;;;;;;5070419;28;20024;-49
2023/11/09 04:15:47;;;;;;;24.38;21.98;;;;;;;;;;5070219;28;20024;-51
2023/11/09 04:18:13;;;;;;;24.30;22.00;;;;;;;;;;5070243;28;20024;-49
2023/11/09 04:20:39;;;;;;;24.90;22.55;;;;;;;;;;5069474;28;20017;-53
2023/11/09 04:23:05;;;;;;;24.42;22.23;;;;;;;;;;5070310;28;20024;-50
2023/11/09 04:25:31;;;;;;;24.58;22.17;;;;;;;;;;5070154;28;20475;-49
2023/11/09 04:27:57;;;;;;;23.60;21.30;;;;;;;;;;5070551;28;20077;-51
2023/11/09 04:30:28;;;;;;;23.42;21.13;;;;;;;;;;5051506;28;20055;-51
2023/11/09 04:32:57;;;;;;;23.70;21.40;;;;;;;;;;5070273;28;20032;-49
2023/11/09 04:35:24;;;;;;;24.00;21.67;;;;;;;;;;5069390;28;20482;-51
2023/11/09 04:37:54;;;;;;;23.25;20.95;;;;;;;;;;5070366;28;20080;-50
2023/11/09 04:40:22;;;;;;;23.42;21.23;;;;;;;;;;5069535;28;20517;-50
2023/11/09 04:42:49;;;;;;;24.23;21.73;;;;;;;;;;5069809;28;20032;-51
2023/11/09 04:45:16;;;;;;;23.92;21.70;;;;;;;;;;5069995;28;20023;-47
2023/11/09 04:47:45;;;;;;;23.70;21.40;;;;;;;;;;5051936;28;20023;-51
2023/11/09 04:50:15;;;;;;;;;;;;;;;;;;5069573;28;20028;-51
2023/11/09 04:52:51;;;;;;;23.02;20.73;;;;;;;;;;5051954;28;19905;-51
2023/11/09 04:55:31;;;;;;;23.83;21.52;;;;;;;;;;5069619;28;20032;-50
2023/11/09 05:06:49;;;;;;;24.13;21.55;;;;;;;;;;5007938;28;20033;-48
2023/11/09 05:09:15;;;;;;;22.80;20.60;;;;;;;;;;5051556;28;20700;-48
2023/11/09 05:11:41;;;;;;;23.10;20.88;;;;;;;;;;5051260;28;20082;-53
2023/11/09 05:14:07;;;;;;;23.02;20.73;;;;;;;;;;5069786;28;20104;-50
2023/11/09 05:16:33;;;;;;;23.08;20.88;;;;;;;;;;5051738;28;20028;-50
2023/11/09 05:18:59;;;;;;;23.58;21.30;;;;;;;;;;5051849;28;20043;-51
2023/11/09 05:21:25;;;;;;;23.63;21.42;;;;;;;;;;5051188;28;20100;-51
2023/11/09 05:23:51;;;;;;;23.70;21.40;;;;;;;;;;5069879;28;20602;-50
2023/11/09 05:26:17;;;;;;;24.05;21.90;;;;;;;;;;5069795;28;20028;-52
2023/11/09 05:28:45;;;;;;;24.48;22.15;;;;;;;;;;5069671;28;20056;-51
2023/11/09 05:31:11;;;;;;;23.50;21.30;;;;;;;;;;5068878;28;20398;-48
2023/11/09 05:33:39;;;;;;;24.30;22.00;;;;;;;;;;5069389;28;20024;-47
2023/11/09 05:36:07;;;;;;;25.98;23.52;;;;;;;;;;5069155;28;20151;-51
2023/11/09 05:38:35;;;;;;;27.92;25.42;;;;;;;;;;5069245;28;20044;-49
2023/11/09 05:41:01;;;;;;;26.75;24.15;;;;;;;;;;5069057;28;20031;-49
2023/11/09 05:43:27;;;;;;;27.05;24.55;;;;;;;;;;5098573;22;20052;-55
2023/11/09 05:45:54;;;;;;;26.70;24.30;;;;;;;;;;5098151;28;20465;-59
2023/11/09 05:48:20;;;;;;;27.50;25.00;;;;;;;;;;5100136;28;20082;-60
2023/11/09 05:50:46;;;;;;;27.23;24.73;;;;;;;;;;5096805;28;20481;-61
2023/11/09 05:53:13;;;;;;;26.65;24.15;;;;;;;;;;5099893;28;20035;-56
2023/11/09 05:55:39;;;;;;;27.13;24.73;;;;;;;;;;5115875;28;20076;-59
2023/11/09 05:58:05;;;;;;;28.00;25.50;;;;;;;;;;5103148;28;20016;-58
2023/11/09 06:00:31;;;;;;;27.35;24.88;;;;;;;;;;5120493;28;20630;-59
2023/11/09 06:02:57;;;;;;;27.48;24.88;;;;;;;;;;5120398;28;20015;-58
2023/11/09 06:05:26;;;;;;;27.33;24.83;;;;;;;;;;5121077;28;20548;-59
2023/11/09 06:07:53;;;;;;;27.30;24.70;;;;;;;;;;5120149;28;20036;-58
2023/11/09 06:10:20;;;;;;;27.38;24.98;;;;;;;;;;5119349;28;20028;-60
2023/11/09 06:12:46;;;;;;;27.80;25.30;;;;;;;;;;5120858;28;20028;-61
2023/11/09 06:15:15;;;;;;;27.15;24.67;;;;;;;;;;5119950;28;20061;-59
2023/11/09 06:17:41;;;;;;;;;;;;;;;;;;5112498;28;20008;-60
2023/11/09 06:20:10;;;;;;;28.00;25.50;;;;;;;;;;5119382;28;19951;-58
2023/11/09 06:22:36;;;;;;;27.75;25.20;;;;;;;;;;5088212;28;20030;-60
2023/11/09 06:25:02;;;;;;;27.52;25.13;;;;;;;;;;5102907;28;20504;-59
2023/11/09 06:27:28;;;;;;;27.15;24.75;;;;;;;;;;5120328;28;20035;-61
2023/11/09 06:29:56;;;;;;;27.35;24.95;;;;;;;;;;5114321;28;20024;-58
2023/11/09 06:32:22;;;;;;;27.27;24.67;;;;;;;;;;5116333;28;20487;-58
2023/11/09 06:34:48;;;;;;;27.92;25.42;;;;;;;;;;5119462;28;20308;-59
2023/11/09 06:37:15;;;;;;;28.30;25.48;;;;;;;;;;5119712;28;20020;-60
2023/11/09 06:39:46;;;;;;;27.65;25.08;;;;;;;;;;5115993;28;20015;-61
2023/11/09 06:42:12;;;;;;;27.83;25.40;;;;;;;;;;5119268;28;20008;-57
2023/11/09 06:44:39;;;;;;;27.30;24.90;;;;;;;;;;5119367;28;20019;-60
2023/11/09 06:47:05;;;;;;;27.88;25.30;;;;;;;;;;5119926;28;20099;-60
2023/11/09 06:49:32;;;;;;;27.98;25.17;;;;;;;;;;5100441;28;20053;-61
2023/11/09 06:51:58;;;;;;;27.10;24.73;;;;;;;;;;5101982;28;20027;-60
2023/11/09 06:54:24;;;;;;;27.15;24.75;;;;;;;;;;5118750;28;20023;-61
2023/11/09 06:56:50;;;;;;;27.80;25.13;;;;;;;;;;5115436;28;20099;-58
2023/11/09 06:59:16;;;;;;;26.80;24.40;;;;;;;;;;5118843;28;20219;-57
2023/11/09 07:01:43;;;;;;;26.88;24.48;;;;;;;;;;5119171;28;20047;-57
2023/11/09 07:04:09;;;;;;;26.98;24.38;;;;;;;;;;5118993;28;20092;-60
2023/11/09 07:06:35;;;;;;;27.17;24.35;;;;;;;;;;5119173;28;20039;-59
2023/11/09 07:09:01;;;;;;;26.38;23.77;;;;;;;;;;5118849;28;20393;-61
2023/11/09 07:11:27;;;;;;;26.33;23.92;;;;;;;;;;5119214;28;20111;-60
2023/11/09 07:13:53;;;;;;;25.80;23.50;;;;;;;;;;5120308;28;20039;-57
2023/11/09 07:16:19;;;;;;;25.20;22.95;;;;;;;;;;5118633;28;20034;-60
2023/11/09 07:18:45;;;;;;;24.98;22.77;;;;;;;;;;5100830;28;20015;-60
2023/11/09 07:21:12;;;;;;;25.67;23.27;;;;;;;;;;5118551;28;20461;-59
2023/11/09 07:23:38;;;;;;;24.95;22.73;;;;;;;;;;5100400;28;20020;-57
2023/11/09 07:26:04;;;;;;;24.13;22.02;;;;;;;;;;5091476;28;20024;-57
2023/11/09 07:28:31;;;;;;;24.50;22.20;;;;;;;;;;5100647;28;20020;-61
2023/11/09 07:31:00;;;;;;;24.15;22.05;;;;;;;;;;5119162;28;20026;-59
2023/11/09 07:33:26;;;;;;;23.15;21.05;;;;;;;;;;5110543;28;20469;-59
2023/11/09 07:35:53;;;;;;;22.98;20.88;;;;;;;;;;5118685;28;20063;-58
2023/11/09 07:38:19;;;;;;;23.08;20.98;;;;;;;;;;5118257;28;20037;-60
2023/11/09 07:40:49;;;;;;;22.88;20.77;;;;;;;;;;5117985;28;20015;-58
2023/11/09 07:43:15;;;;;;;22.60;20.50;;;;;;;;;;5118454;28;20031;-61
2023/11/09 07:45:41;;;;;;;21.77;19.77;;;;;;;;;;5118239;28;20023;-58
2023/11/09 07:48:07;;;;;;;23.00;20.65;;;;;;;;;;5105705;28;20482;-55
2023/11/09 07:50:33;;;;;;;22.20;20.10;;;;;;;;;;5108145;28;20623;-56
2023/11/09 07:53:02;;;;;;;22.50;20.50;;;;;;;;;;5091064;28;20042;-49
2023/11/09 07:55:29;;;;;;;21.85;19.80;;;;;;;;;;5109083;28;20034;-53
2023/11/09 07:58:01;;;;;;;21.25;19.25;;;;;;;;;;5102792;28;20023;-51
2023/11/09 08:00:29;;;;;;;21.70;19.60;;;;;;;;;;5108525;28;20051;-47
2023/11/09 08:02:55;;;;;;;21.30;19.20;;;;;;;;;;5108891;28;20041;-49
2023/11/09 08:05:22;;;;;;;20.30;18.40;;;;;;;;;;5109011;28;20101;-50
2023/11/09 08:07:48;;;;;;;20.45;18.55;;;;;;;;;;5109051;28;20027;-48
2023/11/09 08:10:14;;;;;;;20.45;18.45;;;;;;;;;;5108394;28;20035;-50
2023/11/09 08:12:40;;;;;;;20.52;18.52;;;;;;;;;;5110185;28;20055;-47
2023/11/09 08:15:10;;;;;;;20.65;18.65;;;;;;;;;;5109207;28;20035;-49
2023/11/09 08:17:36;;;;;;;20.40;18.40;;;;;;;;;;5109240;28;20019;-52
2023/11/09 08:20:02;;;;;;;19.88;17.88;;;;;;;;;;5108309;28;20664;-51
2023/11/09 08:22:28;;;;;;;20.05;18.05;;;;;;;;;;5108682;28;20039;-50
2023/11/09 08:24:54;;;;;;;20.98;18.98;;;;;;;;;;5108890;28;20027;-48
2023/11/09 08:27:20;;;;;;;21.35;19.35;;;;;;;;;;5108803;28;20494;-53
2023/11/09 08:29:46;;;;;;;22.80;20.50;;;;;;;;;;5107009;28;20107;-52
2023/11/09 08:32:12;;;;;;;25.83;23.02;;;;;;;;;;5080882;28;20043;-51
2023/11/09 08:34:40;;;;;;;27.38;24.98;;;;;;;;;;5105169;28;20062;-50
2023/11/09 08:37:06;;;;;;;27.10;24.48;;;;;;;;;;5108945;28;20011;-49
2023/11/09 08:39:32;;;;;;;26.90;24.50;;;;;;;;;;5102192;28;20844;-50
2023/11/09 08:41:58;;;;;;;26.67;24.17;;;;;;;;;;5105608;28;20124;-55
2023/11/09 08:44:24;;;;;;;26.25;23.95;;;;;;;;;;5102119;28;20024;-56
2023/11/09 08:46:50;;;;;;;27.25;24.63;;;;;;;;;;5106116;28;20118;-51
2023/11/09 08:49:16;;;;;;;26.65;24.25;;;;;;;;;;5108712;28;20023;-52
2023/11/09 08:51:44;;;;;;;26.85;24.45;;;;;;;;;;5107855;28;20117;-50
2023/11/09 08:54:10;;;;;;;26.85;24.45;;;;;;;;;;5108504;28;20019;-54
2023/11/09 08:56:38;;;;;;;27.48;25.08;;;;;;;;;;5108718;28;20055;-51
2023/11/09 08:59:06;;;;;;;27.20;24.60;;;;;;;;;;5108455;28;20103;-52
2023/11/09 09:01:32;;;;;;;27.58;25.10;;;;;;;;;;5107794;28;20036;-49
2023/11/09 09:03:59;;;;;;;26.80;24.40;;;;;;;;;;5107182;28;20020;-55
2023/11/09 09:06:25;;;;;;;26.80;24.30;;;;;;;;;;5084653;28;20488;-52
2023/11/09 09:08:52;;;;;;;26.52;24.13;;;;;;;;;;5103961;28;20047;-53
2023/11/09 09:11:18;;;;;;;26.73;24.30;;;;;;;;;;5088648;28;20530;-49
2023/11/09 09:13:44;;;;;;;27.48;24.85;;;;;;;;;;5100568;28;20072;-50
2023/11/09 09:16:15;;;;;;;27.05;24.65;;;;;;;;;;5108492;28;20035;-51
2023/11/09 09:18:42;;;;;;;26.27;23.90;;;;;;;;;;5108736;28;20037;-52
2023/11/09 09:21:08;;;;;;;26.02;23.73;;;;;;;;;;5109627;28;20024;-53
2023/11/09 09:23:38;;;;;;;26.52;24.13;;;;;;;;;;5113201;28;20026;-51
2023/11/09 09:26:07;;;;;;;27.10;24.35;;;;;;;;;;5094130;28;20727;-51
2023/11/09 09:28:34;;;;;;;25.58;23.25;;;;;;;;;;5112631;28;20446;-50
2023/11/09 09:31:00;;;;;;;25.02;22.73;;;;;;;;;;5111365;28;20424;-53
2023/11/09 09:33:27;;;;;;;25.50;22.88;;;;;;;;;;5112208;28;20026;-51
2023/11/09 09:35:53;;;;;;;25.40;22.80;;;;;;;;;;5112179;28;20110;-53
2023/11/09 09:38:21;;;;;;;25.90;23.38;;;;;;;;;;5109557;28;20031;-53
2023/11/09 09:40:49;;;;;;;26.13;23.73;;;;;;;;;;5101673;28;20024;-51
2023/11/09 09:43:16;;;;;;;;;;;;;;;;;;5112274;28;20435;-53
2023/11/09 09:45:46;;;;;;;25.38;22.98;;;;;;;;;;5111863;28;20369;-53
2023/11/09 09:48:13;;;;;;;25.23;22.83;;;;;;;;;;5112207;28;20034;-54
2023/11/09 09:50:39;;;;;;;25.23;22.73;;;;;;;;;;5111213;28;20135;-54
2023/11/09 09:53:09;;;;;;;25.70;23.00;;;;;;;;;;5111770;28;20020;-56
2023/11/09 09:55:36;;;;;;;25.38;23.08;;;;;;;;;;5093431;28;20071;-53
2023/11/09 09:58:03;;;;;;;26.23;23.10;;;;;;;;;;5111824;28;20030;-54
2023/11/09 10:00:31;;;;;;;25.42;22.60;;;;;;;;;;5111416;28;20022;-55
2023/11/09 10:03:06;;;;;;;24.97;22.77;;;;;;;;;;5112684;28;20485;-54
2023/11/09 10:05:33;;;;;;;26.85;24.02;;;;;;;;;;5112622;28;20344;-52
2023/11/09 10:08:07;;;;;;;25.73;23.20;;;;;;;;;;5112283;28;20027;-53
2023/11/09 10:10:35;;;;;;;25.42;22.88;;;;;;;;;;5111429;28;20745;-52
2023/11/09 10:13:10;;;;;;;24.70;22.20;;;;;;;;;;5112177;28;20030;-53
2023/11/09 10:15:36;;;;;;;25.50;23.20;;;;;;;;;;5111816;28;20039;-54
2023/11/09 10:18:02;;;;;;;25.00;22.40;;;;;;;;;;5111798;28;20027;-48
2023/11/09 10:20:29;;;;;;;27.45;24.65;;;;;;;;;;5110858;28;20016;-55
2023/11/09 10:22:58;;;;;;;25.70;22.35;;;;;;;;;;5111358;28;20045;-53
2023/11/09 10:25:28;;;;;;;25.25;22.52;;;;;;;;;;5111505;28;20046;-52
2023/11/09 10:28:07;;;;;;;23.98;21.58;;;;;;;;;;5111557;28;20516;-53
2023/11/09 10:30:37;;;;;;;26.10;21.65;;;;;;;;;;5110771;28;20027;-55
2023/11/09 10:33:07;;;;;;;23.08;20.77;;;;;;;;;;5111449;28;20055;-52
2023/11/09 10:35:33;;;;;;;23.75;20.10;;;;;;;;;;5111426;28;20077;-52
2023/11/09 10:38:01;;;;;;;23.10;19.52;;;;;;;;;;5111247;28;20095;-54
2023/11/09 10:40:30;;;;;;;20.60;18.50;;;;;;;;;;5110738;28;20058;-50
2023/11/09 10:43:00;;;;;;;20.98;18.33;;;;;;;;;;5111114;28;20063;-49
2023/11/09 10:45:26;;;;;;;23.63;18.10;;;;;;;;;;5093181;28;20118;-57
2023/11/09 10:47:55;;;;;;;20.23;16.98;;;;;;;;;;5111872;28;20020;-56
2023/11/09 10:50:24;;;;;;;18.00;15.85;;;;;;;;;;5092123;28;20032;-50
2023/11/09 10:52:51;;;;;;;20.25;14.13;;;;;;;;;;5092580;28;20078;-50
2023/11/09 10:55:20;;;;;;;20.58;13.25;;;;;;;;;;5093001;28;20026;-53
2023/11/09 10:57:48;;;;;;;22.77;13.35;;;;;;;;;;5111333;28;20381;-50
2023/11/09 11:00:32;;;;;;;17.05;12.45;;;;;;;;;;5110514;28;20482;-55
2023/11/09 11:03:04;;;;;;;18.00;12.32;;;;;;;;;;5111175;28;20036;-52
2023/11/09 11:05:31;;;;;;;24.58;12.90;;;;;;;;;;5111103;28;20024;-53
2023/11/09 11:08:02;;;;;;;18.88;11.90;;;;;;;;;;5110753;28;20031;-54
2023/11/09 11:10:30;;;;;;;18.85;12.52;;;;;;;;;;5110183;28;20436;-53
2023/11/09 11:13:03;;;;;;;21.38;11.40;;;;;;;;;;5110865;28;20070;-53
2023/11/09 11:15:34;;;;;;;23.33;10.52;;;;;;;;;;5110486;28;20027;-53
2023/11/09 11:18:12;;;;;;;20.00;11.18;;;;;;;;;;5111406;28;20020;-53
2023/11/09 11:20:47;;;;;;;23.35;10.80;;;;;;;;;;5110795;28;20083;-53
2023/11/09 11:23:13;;;;;;;19.58;10.27;;;;;;;;;;5110035;28;20011;-53
2023/11/09 11:25:50;;;;;;;17.60;11.48;;;;;;;;;;5110154;28;20451;-57
2023/11/09 11:28:17;;;;;;;18.42;11.07;;;;;;;;;;5109991;28;20028;-48
2023/11/09 11:30:44;;;;;;;19.15;11.10;;;;;;;;;;5109390;28;20163;-53
2023/11/09 11:33:13;;;;;;;17.05;11.30;;;;;;;;;;5110260;28;20032;-55
2023/11/09 11:35:43;;;;;;;18.23;10.63;;;;;;;;;;5109590;28;20027;-54
2023/11/09 11:38:26;;;;;;;18.45;10.40;;;;;;;;;;5109992;28;20183;-52
2023/11/09 11:41:11;;;;;;;18.23;10.40;;;;;;;;;;5091121;28;20486;-52
2023/11/09 11:43:43;;;;;;;19.60;10.80;;;;;;;;;;5106930;22;20068;-49
2023/11/09 11:46:13;;;;;;;19.48;11.07;;;;;;;;;;5070515;28;20116;-53
2023/11/09 11:48:53;;;;;;;19.52;11.05;;;;;;;;;;5070589;28;20055;-51
2023/11/09 11:51:19;;;;;;;18.35;11.60;;;;;;;;;;5069893;28;20112;-55
2023/11/09 11:53:52;;;;;;;19.30;10.68;;;;;;;;;;5070688;28;20107;-49
2023/11/09 11:56:20;;;;;;;20.10;12.23;;;;;;;;;;5052739;28;20098;-55
2023/11/09 11:58:48;;;;;;;17.38;10.18;;;;;;;;;;5070630;28;20043;-53
2023/11/09 12:01:21;;;;;;;19.75;10.63;;;;;;;;;;5070232;28;20074;-52
2023/11/09 12:03:52;;;;;;;18.95;10.13;;;;;;;;;;5070784;28;20107;-52
2023/11/09 12:06:21;;;;;;;18.30;10.20;;;;;;;;;;5070791;28;20044;-57
2023/11/09 12:08:48;;;;;;;24.45;11.05;;;;;;;;;;5070672;28;20028;-52
2023/11/09 12:11:14;;;;;;;18.17;10.85;;;;;;;;;;5070012;28;20052;-56
2023/11/09 12:13:41;;;;;;;20.27;10.55;;;;;;;;;;5070135;28;20056;-54
2023/11/09 12:16:09;;;;;;;18.60;10.88;;;;;;;;;;5052188;28;20482;-52
2023/11/09 12:18:35;;;;;;;20.65;10.85;;;;;;;;;;5069980;28;20017;-51
2023/11/09 12:21:05;;;;;;;19.08;11.02;;;;;;;;;;5069149;28;20472;-50
2023/11/09 12:23:34;;;;;;;18.25;10.48;;;;;;;;;;5065435;28;20044;-52
2023/11/09 12:26:01;;;;;;;;;;;;;;;;;;5068392;28;20023;-55
2023/11/09 12:28:27;;;;;;;17.60;10.20;;;;;;;;;;5066891;28;20428;-53
2023/11/09 12:30:55;;;;;;;18.83;10.32;;;;;;;;;;5066879;28;20039;-54
2023/11/09 12:33:21;;;;;;;19.20;10.07;;;;;;;;;;5068910;28;20372;-53
2023/11/09 12:35:59;;;;;;;19.55;10.32;;;;;;;;;;5068866;28;20043;-52
2023/11/09 12:38:26;;;;;;;19.25;10.13;;;;;;;;;;5070268;28;20063;-52
2023/11/09 12:40:52;;;;;;;16.60;9.45;;;;;;;;;;5069252;28;20031;-55
2023/11/09 12:43:18;;;;;;;17.77;10.57;;;;;;;;;;5069963;28;20028;-53
2023/11/09 12:46:08;;;;;;;21.42;10.57;;;;;;;;;;5069796;28;20032;-53
2023/11/09 12:48:43;;;;;;;19.13;11.25;;;;;;;;;;5069715;28;20032;-53
2023/11/09 12:51:09;;;;;;;19.38;10.57;;;;;;;;;;5051043;28;20021;-51
2023/11/09 12:53:35;;;;;;;18.05;10.68;;;;;;;;;;5069613;28;20024;-52
2023/11/09 12:56:02;;;;;;;22.95;11.00;;;;;;;;;;5068755;28;20096;-54
2023/11/09 12:58:35;;;;;;;18.08;11.00;;;;;;;;;;5069731;28;20547;-49
2023/11/09 13:01:04;;;;;;;19.58;11.25;;;;;;;;;;5069340;28;20033;-53
2023/11/09 13:03:31;;;;;;;20.13;10.50;;;;;;;;;;5069537;28;20017;-51
2023/11/09 13:06:08;;;;;;;18.85;10.80;;;;;;;;;;5069524;28;20032;-50
2023/11/09 13:08:35;;;;;;;20.48;10.80;;;;;;;;;;5051513;28;20026;-52
2023/11/09 13:11:02;;;;;;;17.70;10.80;;;;;;;;;;5068517;28;20039;-54
2023/11/09 13:13:33;;;;;;;20.38;11.15;;;;;;;;;;5069239;28;20070;-52
2023/11/09 13:16:12;;;;;;;18.45;11.32;;;;;;;;;;5069630;28;20017;-51
2023/11/09 13:18:38;;;;;;;19.23;11.25;;;;;;;;;;5051470;28;20023;-54
2023/11/09 13:21:12;;;;;;;20.58;11.88;;;;;;;;;;5068933;28;20078;-53
2023/11/09 13:23:43;;;;;;;21.35;11.45;;;;;;;;;;5069191;28;20029;-52
2023/11/09 13:26:09;;;;;;;18.60;10.70;;;;;;;;;;5070110;28;20103;-52
2023/11/09 13:28:35;;;;;;;18.48;11.13;;;;;;;;;;5069430;28;20455;-54
2023/11/09 13:31:17;;;;;;;20.08;11.65;;;;;;;;;;5068947;28;20060;-49
2023/11/09 13:33:45;;;;;;;17.98;11.30;;;;;;;;;;5069566;28;20025;-53
2023/11/09 13:36:13;;;;;;;18.50;11.02;;;;;;;;;;5050306;28;20506;-48
2023/11/09 13:46:22;;;;;;;18.23;10.73;;;;;;;;;;5090349;28;20059;-53
2023/11/09 13:57:24;;;;;;;18.27;9.95;;;;;;;;;;5089204;28;20047;-55
2023/11/09 13:59:55;;;;;;;17.13;9.75;;;;;;;;;;5070933;28;20422;-50
2023/11/09 14:02:27;;;;;;;25.20;10.98;;;;;;;;;;5089502;28;20099;-50
2023/11/09 14:04:56;;;;;;;17.02;10.40;;;;;;;;;;5088217;28;20497;-51
2023/11/09 14:07:32;;;;;;;19.80;10.43;;;;;;;;;;5090505;28;20493;-52
2023/11/09 14:10:04;;;;;;;21.38;10.48;;;;;;;;;;5077341;28;20044;-51
2023/11/09 14:15:28;;;;;;;17.95;11.02;;;;;;;;;;5067175;28;20040;-53
2023/11/09 14:17:55;;;;;;;19.95;10.80;;;;;;;;;;5072092;28;20482;-53
2023/11/09 14:20:33;;;;;;;18.65;11.13;;;;;;;;;;5071497;28;20103;-53
2023/11/09 14:23:03;;;;;;;21.35;10.85;;;;;;;;;;5072216;28;20017;-48
2023/11/09 14:25:29;;;;;;;18.05;10.48;;;;;;;;;;5070905;28;20032;-55
2023/11/09 14:27:57;;;;;;;21.42;10.45;;;;;;;;;;5067464;28;20021;-53
2023/11/09 14:30:28;;;;;;;19.17;10.20;;;;;;;;;;5071301;28;20029;-53
2023/11/09 14:32:55;;;;;;;19.40;10.40;;;;;;;;;;5071646;28;20027;-53
2023/11/09 14:35:22;;;;;;;18.63;10.32;;;;;;;;;;5071867;28;20028;-54
2023/11/09 14:37:51;;;;;;;18.77;10.20;;;;;;;;;;5072077;28;20047;-51
2023/11/09 14:40:20;;;;;;;18.88;10.13;;;;;;;;;;5071287;28;20021;-52
2023/11/09 14:42:47;;;;;;;18.60;10.32;;;;;;;;;;5071476;28;20078;-52
2023/11/09 14:45:16;;;;;;;18.85;10.63;;;;;;;;;;5053368;28;20457;-55
2023/11/09 14:47:43;;;;;;;;;;;;;;;;;;5072015;28;20027;-51
2023/11/09 14:50:18;;;;;;;22.60;10.15;;;;;;;;;;5070871;28;19920;-54